Time;durP1;ratioP1;P1;durP2;ratioP2;P2;SDS_P1;SDS_P2;PMS_P1;PMS_P2;Temp;Humidity;BMP_temperature;BMP_pressure;BME280_temperature;BME280_humidity;BME280_pressure;Samples;Min_cycle;Max_cycle;Signal;HPM_P1;HPM_P2
2022/03/30 04:22:35;;;;;;;82.75;31.50;;;;;;;9.12;100.00;98963.88;5129719;27;20112;-77
2022/03/30 04:25:01;;;;;;;75.28;33.00;;;;;;;9.12;100.00;98976.34;5129965;28;20506;-77
2022/03/30 04:27:26;;;;;;;84.68;35.55;;;;;;;9.09;100.00;98960.81;5129896;28;20035;-76
2022/03/30 04:29:52;;;;;;;82.35;35.20;;;;;;;9.11;100.00;98958.75;5129855;28;20035;-77
2022/03/30 04:32:17;;;;;;;81.25;34.13;;;;;;;9.09;100.00;98956.31;5129938;27;20035;-76
2022/03/30 04:34:43;;;;;;;88.53;36.15;;;;;;;9.11;100.00;98958.75;5129730;28;20088;-76
2022/03/30 04:37:09;;;;;;;83.82;34.58;;;;;;;9.05;100.00;98951.56;5129606;28;20154;-76
2022/03/30 04:39:34;;;;;;;77.10;32.20;;;;;;;9.07;100.00;98949.56;5129644;27;20108;-77
2022/03/30 04:42:00;;;;;;;74.18;31.10;;;;;;;9.06;100.00;98955.88;5129496;28;20023;-76
2022/03/30 04:44:26;;;;;;;76.60;33.13;;;;;;;9.05;100.00;98944.41;5129662;27;20823;-77
2022/03/30 04:46:51;;;;;;;73.20;30.90;;;;;;;9.08;100.00;98935.25;5129431;28;20047;-77
2022/03/30 04:49:17;;;;;;;94.50;35.40;;;;;;;9.07;100.00;98949.56;5129447;28;20072;-77
2022/03/30 04:51:43;;;;;;;86.05;31.75;;;;;;;9.02;100.00;98941.34;5129118;28;20115;-78
2022/03/30 04:54:09;;;;;;;89.57;30.27;;;;;;;9.03;100.00;98937.66;5129285;28;20038;-77
2022/03/30 04:56:35;;;;;;;69.25;31.33;;;;;;;9.03;100.00;98932.34;5129223;27;20506;-77
2022/03/30 04:59:00;;;;;;;73.57;30.75;;;;;;;9.03;100.00;98933.19;5129340;27;20032;-76
2022/03/30 05:01:26;;;;;;;80.35;31.35;;;;;;;9.00;100.00;98935.38;5128985;28;20039;-76
2022/03/30 05:03:52;;;;;;;73.93;29.30;;;;;;;9.02;100.00;98936.03;5127811;28;20034;-76
2022/03/30 05:06:18;;;;;;;80.85;31.45;;;;;;;8.92;100.00;98918.59;5129101;27;20345;-77
2022/03/30 05:08:43;;;;;;;76.85;30.38;;;;;;;9.07;100.00;98917.69;5127778;28;20039;-77
2022/03/30 05:11:09;;;;;;;82.32;32.03;;;;;;;9.06;100.00;98926.63;5128962;27;20044;-76
2022/03/30 05:13:35;;;;;;;71.35;29.17;;;;;;;9.06;100.00;98922.16;5128662;27;20035;-78
2022/03/30 05:16:00;;;;;;;72.47;25.95;;;;;;;9.10;100.00;98922.59;5131030;28;20039;-76
2022/03/30 05:18:26;;;;;;;68.85;27.85;;;;;;;9.06;100.00;98911.53;5128894;28;20031;-76
2022/03/30 05:20:53;;;;;;;80.45;28.77;;;;;;;9.10;100.00;98906.66;5128793;28;20471;-77
2022/03/30 05:23:19;;;;;;;73.18;29.00;;;;;;;9.10;100.00;98909.31;5128553;27;20039;-77
2022/03/30 05:25:45;;;;;;;67.25;25.77;;;;;;;9.08;100.00;98903.38;5128679;27;20410;-77
2022/03/30 05:28:11;;;;;;;71.10;28.73;;;;;;;9.13;100.00;98901.78;5128879;27;20040;-77
2022/03/30 05:30:36;;;;;;;74.90;29.90;;;;;;;9.15;100.00;98898.91;5128564;27;20044;-77
2022/03/30 05:33:02;;;;;;;73.03;27.70;;;;;;;9.17;100.00;98899.53;5119651;28;20040;-78
2022/03/30 05:35:28;;;;;;;57.78;26.42;;;;;;;9.14;100.00;98884.00;5114807;28;20038;-77
2022/03/30 05:37:53;;;;;;;64.13;27.65;;;;;;;9.15;100.00;98891.78;5113576;28;20536;-78
2022/03/30 05:40:19;;;;;;;66.15;28.80;;;;;;;9.14;100.00;98886.66;5114727;28;20059;-76
2022/03/30 05:42:45;;;;;;;69.82;26.40;;;;;;;9.14;100.00;98889.31;5113082;28;20122;-77
2022/03/30 05:45:11;;;;;;;67.78;27.77;;;;;;;9.17;100.00;98891.56;5114667;28;20044;-77
2022/03/30 05:47:37;;;;;;;73.30;26.88;;;;;;;9.20;100.00;98889.34;5114600;28;20048;-77
2022/03/30 05:50:03;;;;;;;64.15;27.52;;;;;;;9.18;100.00;98877.25;5114699;28;20036;-74
2022/03/30 05:52:29;;;;;;;70.85;29.48;;;;;;;9.26;100.00;98890.41;5114162;28;20113;-74
2022/03/30 05:54:55;;;;;;;62.40;27.83;;;;;;;9.22;100.00;98889.97;5114509;28;20066;-75
2022/03/30 05:57:23;;;;;;;70.65;28.88;;;;;;;9.18;100.00;98880.72;5114232;28;20047;-74
2022/03/30 05:59:50;;;;;;;65.05;28.25;;;;;;;9.24;100.00;98887.09;5114201;28;20028;-74
2022/03/30 06:02:16;;;;;;;68.88;29.75;;;;;;;9.25;100.00;98884.25;5114005;28;20023;-74
2022/03/30 06:04:42;;;;;;;71.93;30.00;;;;;;;9.22;100.00;98887.31;5114263;28;20408;-75
2022/03/30 06:07:09;;;;;;;65.32;28.33;;;;;;;9.31;100.00;98897.75;5114295;28;20032;-72
2022/03/30 06:09:34;;;;;;;76.75;31.15;;;;;;;9.31;100.00;98893.25;5114295;28;20038;-72
2022/03/30 06:12:01;;;;;;;65.28;30.27;;;;;;;9.25;100.00;98889.56;5113738;28;20043;-74
2022/03/30 06:14:27;;;;;;;74.22;29.80;;;;;;;9.30;100.00;98882.84;5114098;28;20044;-73
2022/03/30 06:16:53;;;;;;;72.45;30.35;;;;;;;9.32;100.00;98888.75;5114048;28;20028;-72
2022/03/30 06:19:18;;;;;;;73.97;30.38;;;;;;;9.40;100.00;98892.09;5113988;28;20039;-71
2022/03/30 06:21:46;;;;;;;72.18;29.60;;;;;;;9.48;100.00;98889.25;5113452;28;20074;-72
2022/03/30 06:24:12;;;;;;;69.28;27.95;;;;;;;9.48;100.00;98888.44;5112637;28;20087;-72
2022/03/30 06:26:42;;;;;;;66.10;27.00;;;;;;;9.57;100.00;98883.75;5112406;28;20031;-71
2022/03/30 06:29:08;;;;;;;65.82;26.83;;;;;;;9.67;100.00;98882.38;5113902;28;20456;-72
2022/03/30 06:31:34;;;;;;;68.28;26.90;;;;;;;9.64;100.00;98876.63;5113591;28;20492;-71
2022/03/30 06:34:00;;;;;;;64.60;26.90;;;;;;;9.70;100.00;98876.63;5113518;28;20043;-71
2022/03/30 06:36:26;;;;;;;53.67;26.40;;;;;;;9.67;100.00;98879.72;5113688;28;20076;-72
2022/03/30 06:38:52;;;;;;;64.43;28.95;;;;;;;9.70;100.00;98883.78;5113523;28;20040;-71
2022/03/30 06:41:18;;;;;;;70.43;28.42;;;;;;;9.65;100.00;98879.09;5113455;28;20044;-71
2022/03/30 06:43:46;;;;;;;69.88;29.40;;;;;;;9.57;100.00;98881.09;5112626;28;20046;-71
2022/03/30 06:46:16;;;;;;;67.80;28.38;;;;;;;9.65;100.00;98878.25;5113058;28;20549;-72
2022/03/30 06:48:42;;;;;;;57.80;26.45;;;;;;;9.70;100.00;98873.97;5113391;28;20509;-72
2022/03/30 06:51:08;;;;;;;62.95;26.67;;;;;;;9.66;100.00;98878.06;5113297;28;20043;-71
2022/03/30 06:53:33;;;;;;;64.65;25.50;;;;;;;9.68;100.00;98864.56;5112889;28;20031;-71
2022/03/30 06:55:59;;;;;;;63.47;25.90;;;;;;;9.75;100.00;98876.84;5113175;28;20561;-72
2022/03/30 06:58:25;;;;;;;62.22;24.77;;;;;;;9.74;100.00;98871.75;5113260;28;20430;-72
2022/03/30 07:00:51;;;;;;;58.67;25.67;;;;;;;9.77;100.00;98860.69;5113293;28;20451;-71
2022/03/30 07:03:18;;;;;;;58.50;25.25;;;;;;;9.75;100.00;98863.56;5112965;28;20034;-72
2022/03/30 07:05:44;;;;;;;59.17;26.58;;;;;;;9.63;100.00;98864.34;5113525;28;20422;-72
2022/03/30 07:10:54;;;;;;;65.55;25.98;;;;;;;9.70;100.00;98865.19;5113066;28;20131;-71
2022/03/30 07:13:22;;;;;;;66.82;28.50;;;;;;;9.68;100.00;98867.22;5112658;28;20099;-72
2022/03/30 07:15:47;;;;;;;62.22;27.45;;;;;;;9.64;100.00;98864.13;5112980;28;20425;-72
2022/03/30 07:18:13;;;;;;;60.65;27.90;;;;;;;9.60;100.00;98864.75;5112923;28;20078;-72
2022/03/30 07:20:40;;;;;;;57.13;26.85;;;;;;;9.54;100.00;98858.41;5112620;28;20038;-73
2022/03/30 07:23:10;;;;;;;78.22;28.88;;;;;;;9.64;100.00;98861.47;5112337;28;20027;-72
2022/03/30 07:25:36;;;;;;;63.08;27.20;;;;;;;9.61;100.00;98863.75;5112711;28;20019;-72
2022/03/30 07:28:03;;;;;;;57.20;26.42;;;;;;;9.68;100.00;98865.38;5112460;28;20042;-72
2022/03/30 07:30:30;;;;;;;62.17;27.30;;;;;;;9.67;100.00;98861.09;5112466;28;20111;-72
2022/03/30 07:32:57;;;;;;;67.28;29.92;;;;;;;9.69;100.00;98858.22;5112396;28;20046;-72
2022/03/30 07:35:27;;;;;;;66.32;27.60;;;;;;;9.63;100.00;98859.84;5112312;28;20038;-73
2022/03/30 07:37:54;;;;;;;62.50;27.77;;;;;;;9.71;100.00;98857.00;5112394;28;20139;-73
2022/03/30 07:40:21;;;;;;;58.67;27.40;;;;;;;9.69;100.00;98858.22;5112336;28;20036;-72
2022/03/30 07:42:49;;;;;;;62.38;28.33;;;;;;;9.74;100.00;98853.13;5112197;27;20063;-73
2022/03/30 07:45:16;;;;;;;66.33;28.50;;;;;;;9.68;100.00;98852.09;5112283;28;20106;-72
2022/03/30 07:47:41;;;;;;;71.47;29.45;;;;;;;9.78;100.00;98859.69;5111370;28;20040;-72
2022/03/30 07:50:08;;;;;;;61.78;26.67;;;;;;;9.85;100.00;98863.19;5112213;28;20100;-72
2022/03/30 07:52:34;;;;;;;64.25;28.20;;;;;;;9.86;100.00;98851.53;5111960;28;20172;-73
2022/03/30 07:55:00;;;;;;;59.30;26.02;;;;;;;9.94;100.00;98855.81;5110573;28;20040;-72
2022/03/30 07:57:26;;;;;;;63.15;24.70;;;;;;;9.98;100.00;98857.88;5111960;28;20039;-73
2022/03/30 08:00:00;;;;;;;62.67;27.80;;;;;;;9.98;100.00;98851.75;5112174;28;20070;-73
2022/03/30 08:02:27;;;;;;;61.28;28.15;;;;;;;10.00;100.00;98858.50;5111743;28;20031;-73
2022/03/30 08:04:54;;;;;;;63.08;27.52;;;;;;;9.99;100.00;98861.38;5112134;28;20065;-73
2022/03/30 08:07:21;;;;;;;71.55;30.92;;;;;;;9.83;100.00;98867.06;5112045;28;20114;-72
2022/03/30 08:09:47;;;;;;;69.07;31.52;;;;;;;9.81;100.00;98861.94;5112039;28;20403;-71
2022/03/30 08:12:17;;;;;;;65.50;31.42;;;;;;;9.76;100.00;98864.38;5111826;28;20027;-72
2022/03/30 08:14:43;;;;;;;79.28;36.45;;;;;;;9.64;100.00;98863.31;5111924;27;20067;-72
2022/03/30 08:17:10;;;;;;;78.68;37.38;;;;;;;9.73;100.00;98870.94;5111823;28;20023;-71
2022/03/30 08:19:36;;;;;;;81.37;35.33;;;;;;;9.75;100.00;98866.22;5111985;28;20032;-72
2022/03/30 08:24:47;;;;;;;81.72;35.53;;;;;;;9.74;100.00;98863.78;5112119;28;20147;-72
2022/03/30 08:27:18;;;;;;;82.15;36.72;;;;;;;9.78;100.00;98857.84;5112005;28;20063;-72
2022/03/30 08:29:44;;;;;;;81.40;39.42;;;;;;;9.62;100.00;98868.03;5111749;28;20111;-72
2022/03/30 08:32:11;;;;;;;81.95;31.63;;;;;;;9.43;100.00;98865.09;5111528;28;20035;-71
2022/03/30 08:34:38;;;;;;;74.20;31.20;;;;;;;9.23;100.00;98866.88;5111848;28;20058;-72
2022/03/30 08:37:04;;;;;;;70.75;30.92;;;;;;;9.16;100.00;98868.69;5111613;28;20032;-72
2022/03/30 08:39:29;;;;;;;70.70;29.08;;;;;;;9.12;100.00;98870.06;5111731;28;20507;-72
2022/03/30 08:41:55;;;;;;;68.82;28.55;;;;;;;9.20;100.00;98875.25;5111358;28;20063;-72
2022/03/30 08:44:22;;;;;;;70.45;28.58;;;;;;;9.09;100.00;98883.75;5111716;28;20036;-71
2022/03/30 08:46:48;;;;;;;66.70;30.77;;;;;;;8.76;100.00;98873.78;5111601;28;20038;-71
2022/03/30 08:49:15;;;;;;;71.78;27.40;;;;;;;8.87;100.00;98881.22;5111629;28;20504;-72
2022/03/30 08:51:45;;;;;;;76.47;28.43;;;;;;;8.75;100.00;98885.41;5110161;28;20036;-72
2022/03/30 08:54:12;;;;;;;71.32;29.20;;;;;;;8.69;100.00;98883.53;5111620;28;20039;-72
2022/03/30 08:56:39;;;;;;;79.03;30.17;;;;;;;8.60;100.00;98884.66;5111540;28;20035;-71
2022/03/30 08:59:09;;;;;;;79.65;34.80;;;;;;;8.45;100.00;98883.97;5111482;28;20043;-71
2022/03/30 09:01:39;;;;;;;84.18;31.20;;;;;;;8.45;100.00;98895.41;5111381;28;20051;-70
2022/03/30 09:04:12;;;;;;;89.90;32.60;;;;;;;8.46;100.00;98893.56;5111525;28;20115;-70
2022/03/30 09:06:43;;;;;;;88.60;33.90;;;;;;;8.46;100.00;98898.88;5111309;28;20484;-70
2022/03/30 09:09:09;;;;;;;80.72;32.40;;;;;;;8.47;100.00;98905.81;5114840;28;20043;-71
2022/03/30 09:11:45;;;;;;;73.63;31.13;;;;;;;8.49;100.00;98903.81;5115196;28;20035;-71
2022/03/30 09:14:15;;;;;;;76.15;29.88;;;;;;;8.27;100.00;98895.00;5115219;28;20035;-71
2022/03/30 09:16:46;;;;;;;79.75;29.67;;;;;;;8.46;100.00;98896.22;5115122;27;20027;-71
2022/03/30 09:19:15;;;;;;;79.50;33.05;;;;;;;8.37;100.00;98896.34;5115170;28;20031;-70
2022/03/30 09:21:43;;;;;;;79.85;33.72;;;;;;;8.39;100.00;98893.50;5114840;28;20047;-70
2022/03/30 09:24:10;;;;;;;83.57;32.30;;;;;;;8.35;100.00;98887.78;5114968;28;20031;-71
2022/03/30 09:26:36;;;;;;;89.35;32.75;;;;;;;8.18;100.00;98890.84;5114970;28;20411;-70
2022/03/30 09:29:03;;;;;;;90.35;33.60;;;;;;;8.29;100.00;98890.34;5115000;28;20032;-70
2022/03/30 09:31:31;;;;;;;88.20;32.92;;;;;;;8.28;100.00;98886.03;5115041;27;20095;-70
2022/03/30 09:34:05;;;;;;;87.60;34.33;;;;;;;8.35;100.00;98889.56;5115550;28;20407;-70
2022/03/30 09:36:38;;;;;;;85.05;32.83;;;;;;;8.32;100.00;98885.47;5115342;28;20039;-70
2022/03/30 09:39:05;;;;;;;97.85;34.25;;;;;;;8.22;100.00;98884.97;5113681;28;20031;-70
2022/03/30 09:41:51;;;;;;;93.35;34.20;;;;;;;8.33;100.00;98887.09;5114656;27;20038;-71
2022/03/30 09:44:18;;;;;;;93.38;34.50;;;;;;;8.34;100.00;98878.13;5113368;28;20042;-71
2022/03/30 09:47:13;;;;;;;95.70;34.55;;;;;;;8.38;100.00;98882.06;5114586;28;20126;-71
2022/03/30 09:49:43;;;;;;;84.38;33.13;;;;;;;8.35;100.00;98878.97;5105531;28;20564;-71
2022/03/30 09:52:21;;;;;;;84.03;33.20;;;;;;;8.47;100.00;98884.56;5114622;28;20027;-71
2022/03/30 09:54:49;;;;;;;96.75;35.03;;;;;;;8.20;100.00;98878.22;5096304;28;20039;-71
2022/03/30 09:57:21;;;;;;;87.15;33.50;;;;;;;8.34;100.00;98885.25;5114401;28;20053;-71
2022/03/30 10:00:09;;;;;;;96.85;37.20;;;;;;;8.08;100.00;98885.84;5113121;28;20522;-71
2022/03/30 10:02:52;;;;;;;;;;;;;;;8.21;100.00;98879.84;5114848;28;20043;-71
2022/03/30 10:05:23;;;;;;;94.40;36.00;;;;;;;8.18;100.00;98875.75;5114179;28;20388;-71
2022/03/30 10:07:49;;;;;;;98.57;34.58;;;;;;;8.26;100.00;98878.25;5114286;28;20118;-70
2022/03/30 10:10:17;;;;;;;112.20;41.15;;;;;;;8.23;100.00;98872.53;5114371;28;20047;-70
2022/03/30 10:12:43;;;;;;;114.35;39.92;;;;;;;8.20;100.00;98876.38;5113828;28;20035;-70
2022/03/30 10:15:11;;;;;;;104.25;40.22;;;;;;;8.21;100.00;98878.00;5113986;28;20046;-71
2022/03/30 10:17:37;;;;;;;91.07;35.45;;;;;;;8.15;100.00;98879.63;5114093;28;20347;-71
2022/03/30 10:20:05;;;;;;;98.95;37.08;;;;;;;8.19;100.00;98880.03;5113740;28;20059;-70
2022/03/30 10:22:54;;;;;;;93.90;38.13;;;;;;;8.15;100.00;98870.84;5113872;28;20020;-71
2022/03/30 10:25:39;;;;;;;86.38;33.80;;;;;;;8.21;100.00;98875.34;5114178;28;20468;-71
2022/03/30 10:28:13;;;;;;;93.80;36.33;;;;;;;8.24;100.00;98880.28;5113949;28;20112;-70
2022/03/30 10:30:43;;;;;;;94.55;35.70;;;;;;;8.15;100.00;98868.19;5113692;28;20036;-71
2022/03/30 10:33:10;;;;;;;89.80;36.55;;;;;;;8.17;100.00;98871.47;5114253;22;20041;-72
2022/03/30 10:35:46;;;;;;;96.78;34.38;;;;;;;8.18;100.00;98870.44;5053188;28;20162;-72
2022/03/30 10:38:12;;;;;;;105.35;39.38;;;;;;;8.20;100.00;98867.59;5053274;28;20032;-73
2022/03/30 10:40:39;;;;;;;94.45;33.60;;;;;;;8.07;100.00;98873.59;5053062;28;20041;-75
2022/03/30 10:43:12;;;;;;;103.72;35.95;;;;;;;8.12;100.00;98869.38;5052694;28;20028;-73
2022/03/30 10:45:40;;;;;;;96.40;35.40;;;;;;;8.18;100.00;98875.75;5052944;28;20211;-73
2022/03/30 10:48:27;;;;;;;88.38;33.92;;;;;;;8.17;100.00;98874.13;5034999;28;20154;-74
2022/03/30 10:51:01;;;;;;;87.90;34.78;;;;;;;8.30;100.00;98874.22;5052800;28;20040;-74
2022/03/30 10:53:30;;;;;;;88.25;34.17;;;;;;;8.32;100.00;98866.88;5052508;28;20116;-75
2022/03/30 10:56:19;;;;;;;70.30;29.80;;;;;;;8.39;100.00;98867.78;5052786;28;20028;-75
2022/03/30 10:58:55;;;;;;;76.50;31.50;;;;;;;8.39;100.00;98873.09;5046106;28;20045;-73
2022/03/30 11:01:29;;;;;;;82.72;31.50;;;;;;;8.41;100.00;98871.09;5052794;28;20029;-72
2022/03/30 11:04:13;;;;;;;79.38;31.83;;;;;;;8.38;100.00;98863.50;5034880;28;20124;-74
2022/03/30 11:06:43;;;;;;;76.78;30.50;;;;;;;8.36;100.00;98860.22;5052696;28;20086;-75
2022/03/30 11:09:23;;;;;;;81.90;32.88;;;;;;;8.27;100.00;98861.31;5034582;28;20036;-73
2022/03/30 11:12:12;;;;;;;91.30;33.67;;;;;;;8.24;100.00;98864.38;5052083;28;20040;-73
2022/03/30 11:14:46;;;;;;;77.03;30.90;;;;;;;8.48;100.00;98860.53;5052622;28;20028;-75
2022/03/30 11:17:29;;;;;;;77.60;31.73;;;;;;;8.40;100.00;98855.34;5052502;28;20068;-73
2022/03/30 11:19:58;;;;;;;75.53;30.33;;;;;;;8.46;100.00;98857.22;5003676;28;20082;-75
2022/03/30 11:22:30;;;;;;;77.13;33.00;;;;;;;8.56;100.00;98854.25;5051842;28;20111;-75
2022/03/30 11:25:23;;;;;;;73.45;31.70;;;;;;;8.56;100.00;98851.59;5052198;28;20108;-74
2022/03/30 11:27:58;;;;;;;79.85;32.38;;;;;;;8.50;100.00;98852.38;5052492;28;20033;-73
2022/03/30 11:30:31;;;;;;;80.22;32.65;;;;;;;8.51;100.00;98844.19;5051378;28;20036;-73
2022/03/30 11:33:04;;;;;;;82.15;31.52;;;;;;;8.58;100.00;98842.41;5051463;28;20144;-74
2022/03/30 11:35:33;;;;;;;87.43;33.20;;;;;;;8.48;100.00;98844.59;5034201;28;20102;-73
2022/03/30 11:38:09;;;;;;;79.13;33.25;;;;;;;8.58;100.00;98845.06;5034453;28;20059;-74
2022/03/30 11:40:44;;;;;;;75.20;32.45;;;;;;;8.67;100.00;98854.53;5052036;28;20040;-72
2022/03/30 11:43:11;;;;;;;79.75;33.95;;;;;;;8.65;100.00;98842.44;5051511;28;20128;-74
2022/03/30 11:45:37;;;;;;;;;;;;;;;8.65;100.00;98839.78;5052395;28;20061;-75
2022/03/30 11:48:10;;;;;;;70.55;29.10;;;;;;;8.83;100.00;98833.97;5034035;28;19967;-75
2022/03/30 11:50:46;;;;;;;81.53;34.40;;;;;;;8.75;100.00;98837.63;5051828;28;20123;-75
2022/03/30 11:53:24;;;;;;;78.10;33.92;;;;;;;8.80;100.00;98834.34;5033530;28;20041;-74
2022/03/30 11:56:00;;;;;;;79.55;33.92;;;;;;;8.91;100.00;98842.59;5051693;28;20080;-71
2022/03/30 11:58:31;;;;;;;79.20;32.97;;;;;;;8.71;100.00;98836.38;5051637;28;20493;-75
2022/03/30 12:01:00;;;;;;;89.05;36.15;;;;;;;8.74;100.00;98837.78;5052065;28;20039;-75
2022/03/30 12:03:26;;;;;;;79.75;32.45;;;;;;;8.70;100.00;98832.06;5051279;28;20120;-72
2022/03/30 12:05:56;;;;;;;81.82;34.63;;;;;;;8.81;100.00;98838.69;5051814;28;20544;-75
2022/03/30 12:08:23;;;;;;;79.53;33.80;;;;;;;8.80;100.00;98835.22;5051656;28;20048;-75
2022/03/30 12:10:50;;;;;;;77.38;30.98;;;;;;;8.88;100.00;98827.06;5051535;28;20040;-72
2022/03/30 12:13:25;;;;;;;86.30;33.90;;;;;;;9.00;100.00;98832.66;5050597;28;20025;-75
2022/03/30 12:16:08;;;;;;;82.07;33.72;;;;;;;9.13;100.00;98823.94;5033342;28;20033;-72
2022/03/30 12:18:55;;;;;;;96.07;36.92;;;;;;;9.30;100.00;98835.00;5033303;28;20032;-72
2022/03/30 12:21:23;;;;;;;78.68;32.22;;;;;;;9.25;100.00;98833.75;5033656;28;20041;-71
2022/03/30 12:23:59;;;;;;;77.47;33.70;;;;;;;9.45;100.00;98831.19;5051163;28;20556;-71
2022/03/30 12:26:25;;;;;;;73.63;32.13;;;;;;;9.62;100.00;98830.81;5051547;28;20044;-74
2022/03/30 12:29:02;;;;;;;64.00;31.55;;;;;;;9.82;100.00;98822.88;5051451;28;20056;-74
2022/03/30 12:31:34;;;;;;;69.90;29.55;;;;;;;10.03;99.54;98817.34;5051295;28;20366;-75
2022/03/30 12:34:12;;;;;;;73.20;33.95;;;;;;;10.15;100.00;98828.22;5051166;28;20043;-75
2022/03/30 12:36:46;;;;;;;76.97;33.90;;;;;;;10.45;100.00;98821.47;5051324;28;20036;-73
2022/03/30 12:39:33;;;;;;;71.35;31.40;;;;;;;10.93;100.00;98823.00;5033556;28;20546;-72
2022/03/30 12:42:06;;;;;;;56.25;27.83;;;;;;;11.06;96.93;98821.13;5051010;28;20041;-75
2022/03/30 12:44:35;;;;;;;64.82;29.08;;;;;;;10.78;97.19;98820.59;5055177;28;20464;-73
2022/03/30 12:47:02;;;;;;;61.13;27.67;;;;;;;10.97;89.03;98813.56;5055036;28;20460;-73
2022/03/30 12:49:36;;;;;;;63.63;31.08;;;;;;;10.98;92.67;98821.34;5055457;28;20033;-72
2022/03/30 12:52:08;;;;;;;61.05;29.55;;;;;;;10.77;91.75;98797.66;5037307;28;20099;-74
2022/03/30 12:54:34;;;;;;;60.10;27.45;;;;;;;10.93;90.05;98815.81;5037058;28;20043;-72
2022/03/30 12:57:00;;;;;;;63.17;29.98;;;;;;;10.68;93.08;98805.03;5037112;28;20071;-75
2022/03/30 12:59:25;;;;;;;67.70;28.63;;;;;;;10.16;97.59;98816.53;5055023;28;20029;-72
2022/03/30 13:01:51;;;;;;;64.05;28.65;;;;;;;10.29;98.34;98811.25;5054835;28;20033;-75
2022/03/30 13:04:30;;;;;;;59.45;27.27;;;;;;;10.46;93.52;98812.47;5054896;28;20129;-76
2022/03/30 13:07:11;;;;;;;61.83;26.83;;;;;;;10.12;98.56;98810.00;5054865;28;20033;-76
2022/03/30 13:09:39;;;;;;;62.30;29.10;;;;;;;9.93;100.00;98801.00;5054790;28;20116;-73
2022/03/30 13:12:06;;;;;;;69.53;28.40;;;;;;;9.77;100.00;98802.19;5054688;28;20072;-71
2022/03/30 13:14:32;;;;;;;70.20;29.00;;;;;;;9.90;100.00;98799.53;5054710;28;20470;-74
2022/03/30 13:17:01;;;;;;;67.45;28.48;;;;;;;10.15;94.03;98798.94;5054568;28;20037;-75
2022/03/30 13:19:27;;;;;;;64.45;29.35;;;;;;;10.06;93.10;98791.16;5036754;28;20037;-72
2022/03/30 13:21:57;;;;;;;63.67;28.35;;;;;;;10.25;92.63;98788.75;5054364;28;20035;-72
2022/03/30 13:24:27;;;;;;;72.10;31.17;;;;;;;10.31;93.84;98787.91;5054823;28;20489;-77
2022/03/30 13:26:53;;;;;;;62.00;28.55;;;;;;;10.31;90.17;98786.06;5054386;28;20029;-73
2022/03/30 13:29:19;;;;;;;72.15;29.25;;;;;;;10.15;91.25;98785.63;5054436;28;20041;-73
2022/03/30 13:31:46;;;;;;;63.72;28.85;;;;;;;10.25;93.35;98784.25;5054052;28;20048;-72
2022/03/30 13:34:13;;;;;;;61.85;29.10;;;;;;;10.42;90.91;98781.94;5036771;28;20033;-73
2022/03/30 13:36:39;;;;;;;62.92;28.90;;;;;;;10.44;88.95;98769.25;5054360;28;20108;-73
2022/03/30 13:39:08;;;;;;;61.67;27.92;;;;;;;10.57;87.15;98774.56;5054263;28;20040;-73
2022/03/30 13:41:33;;;;;;;60.63;27.15;;;;;;;10.67;86.13;98771.44;5054102;28;20033;-73
2022/03/30 13:44:00;;;;;;;70.32;29.90;;;;;;;10.74;87.81;98766.09;5054026;28;20047;-73
2022/03/30 13:46:26;;;;;;;67.80;29.15;;;;;;;10.79;87.91;98766.28;5054038;28;20041;-72
2022/03/30 13:48:52;;;;;;;63.08;27.25;;;;;;;10.82;84.86;98763.19;5054071;28;20106;-73
2022/03/30 13:51:19;;;;;;;62.20;28.30;;;;;;;10.73;88.43;98757.28;5053981;28;20478;-76
2022/03/30 13:53:45;;;;;;;66.93;30.47;;;;;;;10.78;90.10;98757.50;5035372;28;20041;-76
2022/03/30 13:56:10;;;;;;;68.70;29.95;;;;;;;10.85;86.08;98752.94;5036007;28;20525;-76
2022/03/30 13:58:37;;;;;;;66.78;31.40;;;;;;;10.85;86.02;98742.28;5036071;28;20084;-76
2022/03/30 14:01:05;;;;;;;79.05;42.13;;;;;;;10.77;87.52;98747.06;5053614;28;20033;-76
2022/03/30 14:03:32;;;;;;;76.20;36.20;;;;;;;10.84;87.65;98748.66;5035917;28;20033;-76
2022/03/30 14:05:58;;;;;;;74.53;34.40;;;;;;;10.93;85.46;98748.41;5054064;28;20048;-76
2022/03/30 14:08:24;;;;;;;64.72;27.33;;;;;;;10.59;84.63;98753.84;5036019;28;20076;-76
2022/03/30 14:10:51;;;;;;;62.05;27.58;;;;;;;10.36;88.12;98747.34;5035973;28;20043;-73
2022/03/30 14:13:17;;;;;;;62.45;28.00;;;;;;;10.48;88.86;98746.50;5053213;28;20039;-75
2022/03/30 14:15:43;;;;;;;73.18;31.48;;;;;;;10.11;90.05;98733.88;5053387;28;20119;-75
2022/03/30 14:18:08;;;;;;;79.03;32.95;;;;;;;10.06;92.38;98729.16;5053411;28;20040;-76
2022/03/30 14:20:36;;;;;;;76.38;33.22;;;;;;;9.94;94.63;98731.63;5053586;28;20084;-71
2022/03/30 14:23:04;;;;;;;83.85;34.42;;;;;;;9.99;96.02;98729.19;5053105;28;20037;-72
2022/03/30 14:25:34;;;;;;;110.53;45.00;;;;;;;10.14;90.41;98733.44;5035651;28;20550;-75
2022/03/30 14:28:05;;;;;;;90.00;36.50;;;;;;;10.23;89.17;98732.22;5053235;28;20045;-73
2022/03/30 14:30:31;;;;;;;85.40;34.38;;;;;;;10.31;87.96;98727.53;5053332;28;20044;-75
2022/03/30 14:32:58;;;;;;;86.68;37.15;;;;;;;10.24;94.49;98729.38;5035100;28;20033;-75
2022/03/30 14:35:30;;;;;;;75.22;33.95;;;;;;;10.40;90.90;98732.63;5053241;28;20029;-72
2022/03/30 14:38:00;;;;;;;79.13;32.50;;;;;;;10.33;91.78;98725.47;5035604;28;20048;-74
2022/03/30 14:40:26;;;;;;;86.22;36.53;;;;;;;10.41;90.80;98729.72;5053082;28;20397;-71
2022/03/30 14:42:53;;;;;;;80.47;34.47;;;;;;;10.06;91.23;98729.97;5052495;28;20027;-73
2022/03/30 14:45:19;;;;;;;79.63;34.42;;;;;;;10.23;90.63;98717.06;5052742;28;20080;-73
2022/03/30 14:47:45;;;;;;;76.35;33.88;;;;;;;10.28;87.09;98716.47;5052660;28;20129;-72
2022/03/30 14:50:11;;;;;;;74.00;30.92;;;;;;;10.20;86.11;98716.66;5052953;28;20037;-75
2022/03/30 14:52:38;;;;;;;74.45;32.40;;;;;;;10.12;87.20;98715.03;5017406;28;20167;-75
2022/03/30 14:55:09;;;;;;;75.07;32.60;;;;;;;10.22;87.13;98715.41;5035011;28;20051;-72
2022/03/30 14:57:35;;;;;;;79.50;32.60;;;;;;;10.18;86.66;98714.22;5018632;28;20501;-75
2022/03/30 15:00:03;;;;;;;74.82;31.17;;;;;;;10.29;87.13;98718.09;5052672;28;20029;-75
2022/03/30 15:02:29;;;;;;;80.35;33.40;;;;;;;10.26;86.97;98710.53;5052215;28;20033;-75
2022/03/30 15:04:55;;;;;;;73.95;32.05;;;;;;;10.30;86.02;98722.38;5034078;28;20102;-76
2022/03/30 15:07:20;;;;;;;76.30;32.20;;;;;;;10.28;86.66;98711.13;5034317;28;20464;-73
2022/03/30 15:09:54;;;;;;;78.45;32.35;;;;;;;10.27;89.40;98706.84;5052518;28;20037;-72
2022/03/30 15:12:27;;;;;;;79.15;31.77;;;;;;;10.32;86.43;98715.03;5052176;28;20051;-73
2022/03/30 15:14:58;;;;;;;74.60;32.10;;;;;;;10.13;87.56;98715.84;5052534;28;20048;-73
2022/03/30 15:17:35;;;;;;;80.47;33.88;;;;;;;10.17;87.39;98717.91;5052619;28;20343;-72
2022/03/30 15:20:06;;;;;;;73.47;31.45;;;;;;;10.10;88.72;98711.75;5052374;28;20516;-72
2022/03/30 15:22:32;;;;;;;;;;;;;;;10.17;87.08;98712.59;5052318;28;20486;-73
2022/03/30 15:24:59;;;;;;;76.55;34.28;;;;;;;10.21;85.70;98704.97;5052172;28;19916;-76
2022/03/30 15:27:24;;;;;;;88.35;35.03;;;;;;;10.20;87.17;98703.34;5034070;28;20041;-74
2022/03/30 15:29:50;;;;;;;78.47;34.00;;;;;;;10.19;87.31;98704.38;5052125;28;20041;-76
2022/03/30 15:32:16;;;;;;;72.13;34.25;;;;;;;10.15;87.30;98693.31;5051514;28;20473;-73
2022/03/30 15:34:42;;;;;;;77.53;32.88;;;;;;;10.19;90.18;98691.91;5017864;28;20119;-77
2022/03/30 15:37:09;;;;;;;74.47;31.70;;;;;;;10.29;88.26;98694.13;5052158;28;20123;-72
2022/03/30 15:39:35;;;;;;;75.82;34.10;;;;;;;10.26;87.92;98689.25;5052117;28;20083;-76
2022/03/30 15:42:01;;;;;;;76.75;33.53;;;;;;;10.07;94.23;98697.03;5033728;28;20041;-76
2022/03/30 15:44:26;;;;;;;77.45;32.90;;;;;;;9.94;92.71;98685.59;5051908;28;20041;-76
2022/03/30 15:46:52;;;;;;;80.53;32.35;;;;;;;10.08;87.37;98687.19;5052209;28;20464;-73
2022/03/30 15:49:18;;;;;;;79.53;32.05;;;;;;;10.07;88.60;98670.41;5034145;28;20037;-73
2022/03/30 15:51:43;;;;;;;68.18;30.40;;;;;;;9.93;88.16;98681.31;5033505;28;20033;-76